Cap-de-la-Madeleine, Canada
Current Conditions -  °F | °C
As of 11:03 PM on Sunday 23 Nov 2014 (Local Time) from CYRQ Reporting Station
Moderate Fog Moderate Fog  
Wind Chill: 32°   Ceiling: 3400
Heat Index: 36°   Visibility: 0.25mi
Dew Point: 36°   Wind: 5mph
Humidity: 100%   Direction: 30°NNE
Pressure: 29.97"   Gusts: NA
Location:  46.38°N, 72.55°W
Report Text: CYRQ 240403Z AUTO 03004KT 1/4SM FG SCT002 OVC034 02/02 A2997 RMK SLP151
Loading
Personal Weather Stations






























Interactive Weather Map New forecast layout! Learn more

10-Day Weather Forecast

Advertisements
Track Severe Weather on mobile